Thunder radar more information blitzortung!


Radar de pluja more information rain snow radar


Visita la nostra xarxa de llocs de meteo:

Template documentation
and downloads

And another site



No particular awareness of the weather is required.    There are no Weather-warnings

Pagina Historial Weather Underground text

Diari Resum Agost 29, 2017 Unitats:  Tant    Imperial   Mètric
« Previous Dia
SegĂźent Dia »
Diari Setmana Mensual Anual Personalitzada
  Maxima: Minima: Media:
Temperatura: TemperatureC °F /  -17.8 °C 21.1 °F /  -6.1 °C 26.7 °F /  -2.9 °C
Punt de rosada: DewpointC °F /  -17.8 °C 12.2 °F /  -11 °C 16.2 °F /  -8.8 °C
Humitat: Humidity % 35 % 54 %
Wind Speed: WindSpeedKMH mph /  0 km/h - 6.1 mph /  9.8 km/h
RĂ fegues de vent: WindSpeedGustKMH mph /  0 km/h - -
Vent:- - SW
Pression baro: PressurehPa in /  0 hPa 1010.7 in /  34222.3 hPa -
Precipitacions: 0.0 in /  0 mm    
Historical Graphs
 
 
Dades de taula per Agost 29, 2017
Temps Temperatura Punt de rosada Pression baro Vent Wind Speed RĂ fegues de vent Humitat Rainfall Rate (Hourly)
TemperatureC °F /  -17.8 °C DewpointC °F /  -17.8 °C PressurehPa in /  0 hPa Calm     Humidity % HourlyPrecipMM in /  0 mm
00:03 25.5 °F /  -3.6 °C 18.2 °F /  -7.7 °C 1012.8 in /  34293.4 hPa SW 5.6 mph /  9 km/h 5.6 mph /  9 km/h 64 % 0.0 in /  0 mm
00:05 23.2 °F /  -4.9 °C 18.5 °F /  -7.5 °C 1011.7 in /  34256.2 hPa WSW 1.6 mph /  2.6 km/h 4.8 mph /  7.7 km/h 75 % 0.0 in /  0 mm
00:15 23.2 °F /  -4.9 °C 18.3 °F /  -7.6 °C 1011.7 in /  34256.2 hPa WSW 3.2 mph /  5.1 km/h 3.2 mph /  5.1 km/h 74 % 0.0 in /  0 mm
00:25 23.4 °F /  -4.8 °C 18.3 °F /  -7.6 °C 1011.7 in /  34256.2 hPa WSW 3.2 mph /  5.1 km/h 4.8 mph /  7.7 km/h 73 % 0.0 in /  0 mm
00:35 23.6 °F /  -4.7 °C 18.5 °F /  -7.5 °C 1011.7 in /  34256.2 hPa West 3.2 mph /  5.1 km/h 6.4 mph /  10.3 km/h 73 % 0.0 in /  0 mm
00:45 23.6 °F /  -4.7 °C 18.3 °F /  -7.6 °C 1010.7 in /  34222.3 hPa West 8.0 mph /  12.9 km/h 8.0 mph /  12.9 km/h 72 % 0.0 in /  0 mm
00:55 23.7 °F /  -4.6 °C 18.3 °F /  -7.6 °C 1010.7 in /  34222.3 hPa West 4.8 mph /  7.7 km/h 6.4 mph /  10.3 km/h 72 % 0.0 in /  0 mm
01:05 23.6 °F /  -4.7 °C 18.3 °F /  -7.6 °C 1010.7 in /  34222.3 hPa WSW 3.2 mph /  5.1 km/h 4.8 mph /  7.7 km/h 72 % 0.0 in /  0 mm
01:25 23.5 °F /  -4.7 °C 18.2 °F /  -7.7 °C 1010.7 in /  34222.3 hPa WSW 1.6 mph /  2.6 km/h 4.8 mph /  7.7 km/h 72 % 0.0 in /  0 mm
01:35 23.3 °F /  -4.8 °C 17.9 °F /  -7.8 °C 1010.7 in /  34222.3 hPa Calm   3.2 mph /  5.1 km/h 72 % 0.0 in /  0 mm
01:45 23.2 °F /  -4.9 °C 17.9 °F /  -7.8 °C 1010.7 in /  34222.3 hPa WSW 1.6 mph /  2.6 km/h 3.2 mph /  5.1 km/h 72 % 0.0 in /  0 mm
01:55 23.1 °F /  -4.9 °C 17.8 °F /  -7.9 °C 1010.7 in /  34222.3 hPa Calm   1.6 mph /  2.6 km/h 72 % 0.0 in /  0 mm
02:05 22.9 °F /  -5.1 °C 17.6 °F /  -8 °C 1011.7 in /  34256.2 hPa WSW 1.6 mph /  2.6 km/h 3.2 mph /  5.1 km/h 72 % 0.0 in /  0 mm
02:15 22.7 °F /  -5.2 °C 17.6 °F /  -8 °C 1010.7 in /  34222.3 hPa SW 1.6 mph /  2.6 km/h 3.2 mph /  5.1 km/h 73 % 0.0 in /  0 mm
02:25 22.6 °F /  -5.2 °C 17.5 °F /  -8.1 °C 1010.7 in /  34222.3 hPa SW 1.6 mph /  2.6 km/h 3.2 mph /  5.1 km/h 73 % 0.0 in /  0 mm
02:35 22.5 °F /  -5.3 °C 17.4 °F /  -8.1 °C 1011.7 in /  34256.2 hPa Calm   3.2 mph /  5.1 km/h 73 % 0.0 in /  0 mm
02:45 22.4 °F /  -5.3 °C 17.3 °F /  -8.2 °C 1011.7 in /  34256.2 hPa Calm   3.2 mph /  5.1 km/h 73 % 0.0 in /  0 mm
02:55 22.2 °F /  -5.4 °C 17.1 °F /  -8.3 °C 1011.7 in /  34256.2 hPa SW 3.2 mph /  5.1 km/h 3.2 mph /  5.1 km/h 73 % 0.0 in /  0 mm
03:05 22.1 °F /  -5.5 °C 17.2 °F /  -8.2 °C 1011.7 in /  34256.2 hPa SW 1.6 mph /  2.6 km/h 4.8 mph /  7.7 km/h 74 % 0.0 in /  0 mm
03:15 21.9 °F /  -5.6 °C 17.3 °F /  -8.2 °C 1011.7 in /  34256.2 hPa SW 1.6 mph /  2.6 km/h 4.8 mph /  7.7 km/h 75 % 0.0 in /  0 mm
03:25 21.7 °F /  -5.7 °C 17.1 °F /  -8.3 °C 1011.7 in /  34256.2 hPa WSW 1.6 mph /  2.6 km/h 3.2 mph /  5.1 km/h 75 % 0.0 in /  0 mm
03:35 21.6 °F /  -5.8 °C 17.0 °F /  -8.3 °C 1011.7 in /  34256.2 hPa WSW 1.6 mph /  2.6 km/h 3.2 mph /  5.1 km/h 75 % 0.0 in /  0 mm
03:45 21.7 °F /  -5.7 °C 17.1 °F /  -8.3 °C 1011.7 in /  34256.2 hPa SW 1.6 mph /  2.6 km/h 3.2 mph /  5.1 km/h 75 % 0.0 in /  0 mm
03:55 21.9 °F /  -5.6 °C 17.5 °F /  -8.1 °C 1011.7 in /  34256.2 hPa SW 1.6 mph /  2.6 km/h 3.2 mph /  5.1 km/h 76 % 0.0 in /  0 mm
04:05 22.2 °F /  -5.4 °C 17.3 °F /  -8.2 °C 1011.7 in /  34256.2 hPa Calm   4.8 mph /  7.7 km/h 74 % 0.0 in /  0 mm
04:15 22.3 °F /  -5.4 °C 17.4 °F /  -8.1 °C 1011.7 in /  34256.2 hPa WNW 1.6 mph /  2.6 km/h 3.2 mph /  5.1 km/h 74 % 0.0 in /  0 mm
04:25 22.4 °F /  -5.3 °C 17.6 °F /  -8 °C 1011.7 in /  34256.2 hPa SW 1.6 mph /  2.6 km/h 3.2 mph /  5.1 km/h 74 % 0.0 in /  0 mm
04:35 22.8 °F /  -5.1 °C 17.7 °F /  -7.9 °C 1011.7 in /  34256.2 hPa SW 1.6 mph /  2.6 km/h 3.2 mph /  5.1 km/h 73 % 0.0 in /  0 mm
04:45 23.4 °F /  -4.8 °C 18.1 °F /  -7.7 °C 1011.7 in /  34256.2 hPa SW 1.6 mph /  2.6 km/h 3.2 mph /  5.1 km/h 72 % 0.0 in /  0 mm
04:55 23.8 °F /  -4.6 °C 18.2 °F /  -7.7 °C 1011.7 in /  34256.2 hPa SW 1.6 mph /  2.6 km/h 3.2 mph /  5.1 km/h 71 % 0.0 in /  0 mm
09:58 26.0 °F /  -3.3 °C 18.4 °F /  -7.6 °C 1011.7 in /  34256.2 hPa SSE 4.7 mph /  7.6 km/h 4.7 mph /  7.6 km/h 63 % 0.0 in /  0 mm
09:59 26.2 °F /  -3.2 °C 18.6 °F /  -7.4 °C 1011.7 in /  34256.2 hPa SSE 5.6 mph /  9 km/h 5.6 mph /  9 km/h 63 % 0.0 in /  0 mm
10:01 26.3 °F /  -3.2 °C 18.7 °F /  -7.4 °C 1011.7 in /  34256.2 hPa SSE 3.2 mph /  5.1 km/h 3.2 mph /  5.1 km/h 63 % 0.0 in /  0 mm
10:06 26.5 °F /  -3.1 °C 18.6 °F /  -7.4 °C 1011.7 in /  34256.2 hPa ESE 5.6 mph /  9 km/h 5.6 mph /  9 km/h 62 % 0.0 in /  0 mm
10:11 27.1 °F /  -2.7 °C 18.9 °F /  -7.3 °C 1011.7 in /  34256.2 hPa SSE 3.7 mph /  6 km/h 3.7 mph /  6 km/h 61 % 0.0 in /  0 mm
10:21 26.8 °F /  -2.9 °C 18.7 °F /  -7.4 °C 1011.7 in /  34256.2 hPa ENE 3.7 mph /  6 km/h 3.7 mph /  6 km/h 61 % 0.0 in /  0 mm
10:26 26.3 °F /  -3.2 °C 18.2 °F /  -7.7 °C 1011.7 in /  34256.2 hPa East 5.6 mph /  9 km/h 5.6 mph /  9 km/h 61 % 0.0 in /  0 mm
10:31 26.2 °F /  -3.2 °C 18.1 °F /  -7.7 °C 1011.7 in /  34256.2 hPa NE 3.7 mph /  6 km/h 3.7 mph /  6 km/h 61 % 0.0 in /  0 mm
10:36 26.3 °F /  -3.2 °C 18.2 °F /  -7.7 °C 1011.7 in /  34256.2 hPa NE 3.7 mph /  6 km/h 3.7 mph /  6 km/h 61 % 0.0 in /  0 mm
10:41 26.6 °F /  -3 °C 18.4 °F /  -7.6 °C 1011.7 in /  34256.2 hPa SW 3.2 mph /  5.1 km/h 3.2 mph /  5.1 km/h 61 % 0.0 in /  0 mm
10:46 26.9 °F /  -2.8 °C 18.7 °F /  -7.4 °C 1011.7 in /  34256.2 hPa WNW 3.7 mph /  6 km/h 3.7 mph /  6 km/h 61 % 0.0 in /  0 mm
10:51 27.1 °F /  -2.7 °C 18.7 °F /  -7.4 °C 1011.7 in /  34256.2 hPa ENE 6.1 mph /  9.8 km/h 6.1 mph /  9.8 km/h 60 % 0.0 in /  0 mm
10:56 27.6 °F /  -2.4 °C 18.9 °F /  -7.3 °C 1011.7 in /  34256.2 hPa NNE 3.7 mph /  6 km/h 3.7 mph /  6 km/h 59 % 0.0 in /  0 mm
11:01 27.8 °F /  -2.3 °C 18.5 °F /  -7.5 °C 1011.7 in /  34256.2 hPa East 3.9 mph /  6.3 km/h 3.9 mph /  6.3 km/h 57 % 0.0 in /  0 mm
11:06 27.9 °F /  -2.3 °C 18.9 °F /  -7.3 °C 1011.7 in /  34256.2 hPa ESE 1.9 mph /  3.1 km/h 1.9 mph /  3.1 km/h 58 % 0.0 in /  0 mm
11:11 28.1 °F /  -2.2 °C 18.8 °F /  -7.3 °C 1011.7 in /  34256.2 hPa ENE 7.4 mph /  11.9 km/h 7.4 mph /  11.9 km/h 57 % 0.0 in /  0 mm
11:16 28.0 °F /  -2.2 °C 18.4 °F /  -7.6 °C 1011.7 in /  34256.2 hPa ESE 3.7 mph /  6 km/h 3.7 mph /  6 km/h 56 % 0.0 in /  0 mm
11:21 28.5 °F /  -1.9 °C 19.2 °F /  -7.1 °C 1011.7 in /  34256.2 hPa SW 1.9 mph /  3.1 km/h 1.9 mph /  3.1 km/h 57 % 0.0 in /  0 mm
11:26 29.2 °F /  -1.6 °C 19.2 °F /  -7.1 °C 1011.7 in /  34256.2 hPa West 5.6 mph /  9 km/h 5.6 mph /  9 km/h 55 % 0.0 in /  0 mm
11:31 28.7 °F /  -1.8 °C 19.1 °F /  -7.2 °C 1011.7 in /  34256.2 hPa SW 7.4 mph /  11.9 km/h 7.4 mph /  11.9 km/h 56 % 0.0 in /  0 mm
11:36 29.0 °F /  -1.7 °C 18.4 °F /  -7.6 °C 1011.7 in /  34256.2 hPa SE 3.7 mph /  6 km/h 3.7 mph /  6 km/h 53 % 0.0 in /  0 mm
11:41 29.8 °F /  -1.2 °C 18.9 °F /  -7.3 °C 1011.7 in /  34256.2 hPa SW 5.8 mph /  9.3 km/h 5.8 mph /  9.3 km/h 52 % 0.0 in /  0 mm
11:42 29.9 °F /  -1.2 °C 19.0 °F /  -7.2 °C 1011.7 in /  34256.2 hPa South 5.6 mph /  9 km/h 5.6 mph /  9 km/h 52 % 0.0 in /  0 mm
11:47 30.3 °F /  -0.9 °C 19.1 °F /  -7.2 °C 1011.7 in /  34256.2 hPa SSW 3.7 mph /  6 km/h 3.7 mph /  6 km/h 51 % 0.0 in /  0 mm
11:52 30.0 °F /  -1.1 °C 18.8 °F /  -7.3 °C 1011.7 in /  34256.2 hPa South 7.4 mph /  11.9 km/h 7.4 mph /  11.9 km/h 51 % 0.0 in /  0 mm
12:02 30.1 °F /  -1.1 °C 18.6 °F /  -7.4 °C 1012.8 in /  34293.4 hPa WSW 5.6 mph /  9 km/h 5.6 mph /  9 km/h 50 % 0.0 in /  0 mm
12:07 30.1 °F /  -1.1 °C 18.6 °F /  -7.4 °C 1012.8 in /  34293.4 hPa SSW 5.6 mph /  9 km/h 5.6 mph /  9 km/h 50 % 0.0 in /  0 mm
12:12 30.2 °F /  -1 °C 18.3 °F /  -7.6 °C 1011.7 in /  34256.2 hPa NW 2.6 mph /  4.2 km/h 2.6 mph /  4.2 km/h 49 % 0.0 in /  0 mm
12:17 30.1 °F /  -1.1 °C 18.2 °F /  -7.7 °C 1011.7 in /  34256.2 hPa West 7.9 mph /  12.7 km/h 7.9 mph /  12.7 km/h 49 % 0.0 in /  0 mm
12:22 30.0 °F /  -1.1 °C 17.8 °F /  -7.9 °C 1011.7 in /  34256.2 hPa South 3.7 mph /  6 km/h 3.7 mph /  6 km/h 48 % 0.0 in /  0 mm
12:27 30.3 °F /  -0.9 °C 18.1 °F /  -7.7 °C 1011.7 in /  34256.2 hPa SW 3.7 mph /  6 km/h 3.7 mph /  6 km/h 48 % 0.0 in /  0 mm
12:32 30.5 °F /  -0.8 °C 18.2 °F /  -7.7 °C 1011.7 in /  34256.2 hPa West 3.7 mph /  6 km/h 3.7 mph /  6 km/h 48 % 0.0 in /  0 mm
12:37 30.9 °F /  -0.6 °C 18.6 °F /  -7.4 °C 1011.7 in /  34256.2 hPa SW 5.6 mph /  9 km/h 5.6 mph /  9 km/h 48 % 0.0 in /  0 mm
12:38 31.0 °F /  -0.6 °C 18.4 °F /  -7.6 °C 1011.7 in /  34256.2 hPa South 2.6 mph /  4.2 km/h 2.6 mph /  4.2 km/h 47 % 0.0 in /  0 mm
12:43 30.9 °F /  -0.6 °C 18.6 °F /  -7.4 °C 1012.8 in /  34293.4 hPa WSW 5.6 mph /  9 km/h 5.6 mph /  9 km/h 48 % 0.0 in /  0 mm
12:48 31.1 °F /  -0.5 °C 18.1 °F /  -7.7 °C 1012.8 in /  34293.4 hPa SSW 3.7 mph /  6 km/h 3.7 mph /  6 km/h 46 % 0.0 in /  0 mm
12:53 31.0 °F /  -0.6 °C 18.4 °F /  -7.6 °C 1012.8 in /  34293.4 hPa WSW 7.6 mph /  12.2 km/h 7.6 mph /  12.2 km/h 47 % 0.0 in /  0 mm
12:58 30.9 °F /  -0.6 °C 18.3 °F /  -7.6 °C 1011.7 in /  34256.2 hPa WSW 7.4 mph /  11.9 km/h 7.4 mph /  11.9 km/h 47 % 0.0 in /  0 mm
13:03 31.2 °F /  -0.4 °C 18.2 °F /  -7.7 °C 1011.7 in /  34256.2 hPa SW 5.6 mph /  9 km/h 5.6 mph /  9 km/h 46 % 0.0 in /  0 mm
13:08 31.3 °F /  -0.4 °C 17.9 °F /  -7.8 °C 1011.7 in /  34256.2 hPa ESE 3.7 mph /  6 km/h 4.2 mph /  6.8 km/h 45 % 0.0 in /  0 mm
13:13 32.2 °F /  0.1 °C 18.8 °F /  -7.3 °C 1011.7 in /  34256.2 hPa South 5.6 mph /  9 km/h 5.6 mph /  9 km/h 45 % 0.0 in /  0 mm
13:18 32.0 °F /  0 °C 18.2 °F /  -7.7 °C 1011.7 in /  34256.2 hPa SSE 7.4 mph /  11.9 km/h 7.4 mph /  11.9 km/h 44 % 0.0 in /  0 mm
13:23 32.2 °F /  0.1 °C 18.8 °F /  -7.3 °C 1011.7 in /  34256.2 hPa SW 9.7 mph /  15.6 km/h 9.7 mph /  15.6 km/h 45 % 0.0 in /  0 mm
13:28 32.3 °F /  0.2 °C 18.5 °F /  -7.5 °C 1010.7 in /  34222.3 hPa SSW 5.6 mph /  9 km/h 5.6 mph /  9 km/h 44 % 0.0 in /  0 mm
13:33 32.4 °F /  0.2 °C 18.6 °F /  -7.4 °C 1010.7 in /  34222.3 hPa WSW 6.1 mph /  9.8 km/h 6.1 mph /  9.8 km/h 44 % 0.0 in /  0 mm
13:38 32.2 °F /  0.1 °C 18.4 °F /  -7.6 °C 1010.7 in /  34222.3 hPa WSW 9.3 mph /  15 km/h 9.3 mph /  15 km/h 44 % 0.0 in /  0 mm
13:43 31.7 °F /  -0.2 °C 17.6 °F /  -8 °C 1010.7 in /  34222.3 hPa South 9.3 mph /  15 km/h 9.3 mph /  15 km/h 43 % 0.0 in /  0 mm
13:48 32.1 °F /  0.1 °C 17.9 °F /  -7.8 °C 1010.7 in /  34222.3 hPa South 14.8 mph /  23.8 km/h 14.8 mph /  23.8 km/h 43 % 0.0 in /  0 mm
13:53 32.9 °F /  0.5 °C 18.7 °F /  -7.4 °C 1010.7 in /  34222.3 hPa South 9.5 mph /  15.3 km/h 9.5 mph /  15.3 km/h 43 % 0.0 in /  0 mm
13:58 33.2 °F /  0.7 °C 17.8 °F /  -7.9 °C 1011.7 in /  34256.2 hPa SE 9.3 mph /  15 km/h 9.3 mph /  15 km/h 40 % 0.0 in /  0 mm
14:03 32.7 °F /  0.4 °C 16.9 °F /  -8.4 °C 1011.7 in /  34256.2 hPa SW 9.3 mph /  15 km/h 9.5 mph /  15.3 km/h 39 % 0.0 in /  0 mm
14:08 32.8 °F /  0.4 °C 17.0 °F /  -8.3 °C 1011.7 in /  34256.2 hPa SW 13.0 mph /  20.9 km/h 13.0 mph /  20.9 km/h 39 % 0.0 in /  0 mm
14:13 32.5 °F /  0.3 °C 16.3 °F /  -8.7 °C 1011.7 in /  34256.2 hPa West 18.5 mph /  29.8 km/h 18.5 mph /  29.8 km/h 38 % 0.0 in /  0 mm
14:18 31.9 °F /  -0.1 °C 15.4 °F /  -9.2 °C 1011.7 in /  34256.2 hPa WSW 22.2 mph /  35.7 km/h 22.2 mph /  35.7 km/h 37 % 0.0 in /  0 mm
14:23 31.6 °F /  -0.2 °C 15.1 °F /  -9.4 °C 1011.7 in /  34256.2 hPa SSW 14.8 mph /  23.8 km/h 14.8 mph /  23.8 km/h 37 % 0.0 in /  0 mm
14:28 31.6 °F /  -0.2 °C 15.1 °F /  -9.4 °C 1011.7 in /  34256.2 hPa South 5.6 mph /  9 km/h 5.6 mph /  9 km/h 37 % 0.0 in /  0 mm
14:33 31.7 °F /  -0.2 °C 15.6 °F /  -9.1 °C 1011.7 in /  34256.2 hPa SSW 7.4 mph /  11.9 km/h 7.4 mph /  11.9 km/h 38 % 0.0 in /  0 mm
14:38 31.8 °F /  -0.1 °C 15.3 °F /  -9.3 °C 1011.7 in /  34256.2 hPa SSW 6.4 mph /  10.3 km/h 6.4 mph /  10.3 km/h 37 % 0.0 in /  0 mm
14:43 31.7 °F /  -0.2 °C 15.2 °F /  -9.3 °C 1011.7 in /  34256.2 hPa SW 11.1 mph /  17.9 km/h 11.1 mph /  17.9 km/h 37 % 0.0 in /  0 mm
14:48 31.6 °F /  -0.2 °C 15.1 °F /  -9.4 °C 1011.7 in /  34256.2 hPa ESE 10.3 mph /  16.6 km/h 10.3 mph /  16.6 km/h 37 % 0.0 in /  0 mm
14:53 31.6 °F /  -0.2 °C 15.1 °F /  -9.4 °C 1011.7 in /  34256.2 hPa SW 7.4 mph /  11.9 km/h 7.4 mph /  11.9 km/h 37 % 0.0 in /  0 mm
14:58 31.3 °F /  -0.4 °C 14.9 °F /  -9.5 °C 1012.8 in /  34293.4 hPa SSW 14.8 mph /  23.8 km/h 14.8 mph /  23.8 km/h 37 % 0.0 in /  0 mm
15:03 31.1 °F /  -0.5 °C 14.3 °F /  -9.8 °C 1012.8 in /  34293.4 hPa WSW 13.0 mph /  20.9 km/h 13.0 mph /  20.9 km/h 36 % 0.0 in /  0 mm
15:08 31.2 °F /  -0.4 °C 14.3 °F /  -9.8 °C 1012.8 in /  34293.4 hPa SSW 9.3 mph /  15 km/h 9.3 mph /  15 km/h 36 % 0.0 in /  0 mm
15:13 31.1 °F /  -0.5 °C 14.3 °F /  -9.8 °C 1012.8 in /  34293.4 hPa SW 10.3 mph /  16.6 km/h 10.3 mph /  16.6 km/h 36 % 0.0 in /  0 mm
15:18 31.2 °F /  -0.4 °C 14.3 °F /  -9.8 °C 1012.8 in /  34293.4 hPa SSW 11.1 mph /  17.9 km/h 11.1 mph /  17.9 km/h 36 % 0.0 in /  0 mm
15:23 31.2 °F /  -0.4 °C 14.3 °F /  -9.8 °C 1012.8 in /  34293.4 hPa SW 13.0 mph /  20.9 km/h 13.0 mph /  20.9 km/h 36 % 0.0 in /  0 mm
15:28 31.3 °F /  -0.4 °C 14.0 °F /  -10 °C 1012.8 in /  34293.4 hPa WSW 11.1 mph /  17.9 km/h 11.1 mph /  17.9 km/h 35 % 0.0 in /  0 mm
15:33 31.1 °F /  -0.5 °C 14.3 °F /  -9.8 °C 1012.8 in /  34293.4 hPa SSW 20.4 mph /  32.8 km/h 20.4 mph /  32.8 km/h 36 % 0.0 in /  0 mm
15:38 30.9 °F /  -0.6 °C 14.9 °F /  -9.5 °C 1012.8 in /  34293.4 hPa SSW 9.5 mph /  15.3 km/h 9.5 mph /  15.3 km/h 38 % 0.0 in /  0 mm
15:43 30.7 °F /  -0.7 °C 15.2 °F /  -9.3 °C 1012.8 in /  34293.4 hPa South 11.1 mph /  17.9 km/h 11.1 mph /  17.9 km/h 39 % 0.0 in /  0 mm
15:48 30.5 °F /  -0.8 °C 15.4 °F /  -9.2 °C 1012.8 in /  34293.4 hPa SSW 13.0 mph /  20.9 km/h 13.0 mph /  20.9 km/h 40 % 0.0 in /  0 mm
15:53 30.6 °F /  -0.8 °C 15.4 °F /  -9.2 °C 1012.8 in /  34293.4 hPa SSW 11.1 mph /  17.9 km/h 11.1 mph /  17.9 km/h 40 % 0.0 in /  0 mm
15:58 30.4 °F /  -0.9 °C 15.3 °F /  -9.3 °C 1012.8 in /  34293.4 hPa WSW 9.3 mph /  15 km/h 9.3 mph /  15 km/h 40 % 0.0 in /  0 mm
16:03 30.5 °F /  -0.8 °C 15.8 °F /  -9 °C 1012.8 in /  34293.4 hPa WSW 10.0 mph /  16.1 km/h 10.0 mph /  16.1 km/h 41 % 0.0 in /  0 mm
16:08 30.2 °F /  -1 °C 15.1 °F /  -9.4 °C 1012.8 in /  34293.4 hPa SSW 13.0 mph /  20.9 km/h 13.0 mph /  20.9 km/h 40 % 0.0 in /  0 mm
16:13 30.0 °F /  -1.1 °C 14.9 °F /  -9.5 °C 1012.8 in /  34293.4 hPa WSW 11.1 mph /  17.9 km/h 11.1 mph /  17.9 km/h 40 % 0.0 in /  0 mm
16:18 29.8 °F /  -1.2 °C 15.1 °F /  -9.4 °C 1012.8 in /  34293.4 hPa WSW 13.0 mph /  20.9 km/h 13.0 mph /  20.9 km/h 41 % 0.0 in /  0 mm
16:23 29.7 °F /  -1.3 °C 15.1 °F /  -9.4 °C 1012.8 in /  34293.4 hPa SSE 10.3 mph /  16.6 km/h 10.3 mph /  16.6 km/h 41 % 0.0 in /  0 mm
16:28 29.6 °F /  -1.3 °C 15.3 °F /  -9.3 °C 1011.7 in /  34256.2 hPa SSW 9.3 mph /  15 km/h 9.3 mph /  15 km/h 42 % 0.0 in /  0 mm
16:33 29.5 °F /  -1.4 °C 15.2 °F /  -9.3 °C 1011.7 in /  34256.2 hPa SW 7.4 mph /  11.9 km/h 7.4 mph /  11.9 km/h 42 % 0.0 in /  0 mm
16:34 29.5 °F /  -1.4 °C 15.2 °F /  -9.3 °C 1011.7 in /  34256.2 hPa WSW 10.3 mph /  16.6 km/h 10.3 mph /  16.6 km/h 42 % 0.0 in /  0 mm
16:39 29.3 °F /  -1.5 °C 15.1 °F /  -9.4 °C 1011.7 in /  34256.2 hPa WSW 16.7 mph /  26.9 km/h 16.7 mph /  26.9 km/h 42 % 0.0 in /  0 mm
16:44 29.2 °F /  -1.6 °C 14.9 °F /  -9.5 °C 1011.7 in /  34256.2 hPa WSW 7.4 mph /  11.9 km/h 7.4 mph /  11.9 km/h 42 % 0.0 in /  0 mm
16:49 29.2 °F /  -1.6 °C 14.9 °F /  -9.5 °C 1011.7 in /  34256.2 hPa SW 9.5 mph /  15.3 km/h 9.5 mph /  15.3 km/h 42 % 0.0 in /  0 mm
16:54 29.0 °F /  -1.7 °C 14.8 °F /  -9.6 °C 1011.7 in /  34256.2 hPa WSW 16.7 mph /  26.9 km/h 16.7 mph /  26.9 km/h 42 % 0.0 in /  0 mm
16:59 28.9 °F /  -1.7 °C 15.1 °F /  -9.4 °C 1011.7 in /  34256.2 hPa WSW 9.3 mph /  15 km/h 9.3 mph /  15 km/h 43 % 0.0 in /  0 mm
17:04 28.9 °F /  -1.7 °C 15.1 °F /  -9.4 °C 1011.7 in /  34256.2 hPa South 9.3 mph /  15 km/h 9.3 mph /  15 km/h 43 % 0.0 in /  0 mm
17:09 28.9 °F /  -1.7 °C 15.4 °F /  -9.2 °C 1011.7 in /  34256.2 hPa SSW 9.3 mph /  15 km/h 9.5 mph /  15.3 km/h 44 % 0.0 in /  0 mm
17:14 28.8 °F /  -1.8 °C 15.3 °F /  -9.3 °C 1011.7 in /  34256.2 hPa West 9.3 mph /  15 km/h 9.3 mph /  15 km/h 44 % 0.0 in /  0 mm
17:19 28.7 °F /  -1.8 °C 15.2 °F /  -9.3 °C 1011.7 in /  34256.2 hPa SSW 11.1 mph /  17.9 km/h 11.1 mph /  17.9 km/h 44 % 0.0 in /  0 mm
17:24 28.5 °F /  -1.9 °C 15.4 °F /  -9.2 °C 1012.8 in /  34293.4 hPa WSW 16.7 mph /  26.9 km/h 16.7 mph /  26.9 km/h 45 % 0.0 in /  0 mm
17:29 28.1 °F /  -2.2 °C 15.4 °F /  -9.2 °C 1012.8 in /  34293.4 hPa SW 20.4 mph /  32.8 km/h 20.4 mph /  32.8 km/h 46 % 0.0 in /  0 mm
17:34 27.6 °F /  -2.4 °C 15.9 °F /  -8.9 °C 1012.8 in /  34293.4 hPa SW 17.5 mph /  28.2 km/h 17.5 mph /  28.2 km/h 49 % 0.0 in /  0 mm
17:39 27.2 °F /  -2.7 °C 16.2 °F /  -8.8 °C 1013.8 in /  34327.3 hPa SW 16.7 mph /  26.9 km/h 16.7 mph /  26.9 km/h 51 % 0.0 in /  0 mm
17:44 26.4 °F /  -3.1 °C 16.6 °F /  -8.6 °C 1013.8 in /  34327.3 hPa South 11.1 mph /  17.9 km/h 11.1 mph /  17.9 km/h 55 % 0.0 in /  0 mm
17:49 25.8 °F /  -3.4 °C 16.9 °F /  -8.4 °C 1013.8 in /  34327.3 hPa SW 16.7 mph /  26.9 km/h 16.7 mph /  26.9 km/h 58 % 0.0 in /  0 mm
17:54 25.5 °F /  -3.6 °C 17.2 °F /  -8.2 °C 1013.8 in /  34327.3 hPa SW 12.6 mph /  20.3 km/h 12.6 mph /  20.3 km/h 60 % 0.0 in /  0 mm
17:59 25.4 °F /  -3.7 °C 17.6 °F /  -8 °C 1013.8 in /  34327.3 hPa WSW 11.1 mph /  17.9 km/h 11.1 mph /  17.9 km/h 62 % 0.0 in /  0 mm
18:04 25.4 °F /  -3.7 °C 17.6 °F /  -8 °C 1013.8 in /  34327.3 hPa SW 14.8 mph /  23.8 km/h 14.8 mph /  23.8 km/h 62 % 0.0 in /  0 mm
18:09 25.2 °F /  -3.8 °C 17.9 °F /  -7.8 °C 1013.8 in /  34327.3 hPa South 13.0 mph /  20.9 km/h 13.0 mph /  20.9 km/h 64 % 0.0 in /  0 mm
18:14 25.0 °F /  -3.9 °C 17.4 °F /  -8.1 °C 1013.8 in /  34327.3 hPa SW 9.0 mph /  14.5 km/h 9.0 mph /  14.5 km/h 63 % 0.0 in /  0 mm
18:19 25.0 °F /  -3.9 °C 17.7 °F /  -7.9 °C 1013.8 in /  34327.3 hPa SW 9.3 mph /  15 km/h 9.3 mph /  15 km/h 64 % 0.0 in /  0 mm
18:24 25.1 °F /  -3.8 °C 17.6 °F /  -8 °C 1013.8 in /  34327.3 hPa West 9.3 mph /  15 km/h 9.3 mph /  15 km/h 63 % 0.0 in /  0 mm
18:29 25.1 °F /  -3.8 °C 17.6 °F /  -8 °C 1013.8 in /  34327.3 hPa SW 5.6 mph /  9 km/h 5.6 mph /  9 km/h 63 % 0.0 in /  0 mm
18:34 25.2 °F /  -3.8 °C 17.7 °F /  -7.9 °C 1013.8 in /  34327.3 hPa SW 7.4 mph /  11.9 km/h 7.4 mph /  11.9 km/h 63 % 0.0 in /  0 mm
18:39 25.4 °F /  -3.7 °C 17.6 °F /  -8 °C 1012.8 in /  34293.4 hPa West 7.4 mph /  11.9 km/h 7.4 mph /  11.9 km/h 62 % 0.0 in /  0 mm
18:44 25.4 °F /  -3.7 °C 17.3 °F /  -8.2 °C 1012.8 in /  34293.4 hPa WSW 7.4 mph /  11.9 km/h 7.4 mph /  11.9 km/h 61 % 0.0 in /  0 mm
18:49 25.5 °F /  -3.6 °C 17.2 °F /  -8.2 °C 1012.8 in /  34293.4 hPa West 5.6 mph /  9 km/h 5.6 mph /  9 km/h 60 % 0.0 in /  0 mm
18:54 25.6 °F /  -3.6 °C 17.3 °F /  -8.2 °C 1012.8 in /  34293.4 hPa WSW 3.2 mph /  5.1 km/h 3.2 mph /  5.1 km/h 60 % 0.0 in /  0 mm
18:59 25.6 °F /  -3.6 °C 17.3 °F /  -8.2 °C 1012.8 in /  34293.4 hPa SW 3.7 mph /  6 km/h 3.7 mph /  6 km/h 60 % 0.0 in /  0 mm
19:04 25.6 °F /  -3.6 °C 16.7 °F /  -8.5 °C 1012.8 in /  34293.4 hPa WNW 5.6 mph /  9 km/h 5.6 mph /  9 km/h 58 % 0.0 in /  0 mm
19:09 25.7 °F /  -3.5 °C 16.6 °F /  -8.6 °C 1012.8 in /  34293.4 hPa West 3.9 mph /  6.3 km/h 3.9 mph /  6.3 km/h 57 % 0.0 in /  0 mm
19:14 25.8 °F /  -3.4 °C 16.3 °F /  -8.7 °C 1012.8 in /  34293.4 hPa West 3.7 mph /  6 km/h 3.7 mph /  6 km/h 56 % 0.0 in /  0 mm
19:15 25.8 °F /  -3.4 °C 16.3 °F /  -8.7 °C 1012.8 in /  34293.4 hPa Calm   3.2 mph /  5.1 km/h 56 % 0.0 in /  0 mm
19:20 26.0 °F /  -3.3 °C 16.3 °F /  -8.7 °C 1012.8 in /  34293.4 hPa West 1.9 mph /  3.1 km/h   55 % 0.0 in /  0 mm
19:25 26.0 °F /  -3.3 °C 16.3 °F /  -8.7 °C 1011.7 in /  34256.2 hPa SW 5.8 mph /  9.3 km/h 5.8 mph /  9.3 km/h 55 % 0.0 in /  0 mm
19:30 25.9 °F /  -3.4 °C 16.2 °F /  -8.8 °C 1011.7 in /  34256.2 hPa Calm   4.8 mph /  7.7 km/h 55 % 0.0 in /  0 mm
19:35 25.9 °F /  -3.4 °C 15.9 °F /  -8.9 °C 1011.7 in /  34256.2 hPa SW 1.6 mph /  2.6 km/h 3.2 mph /  5.1 km/h 54 % 0.0 in /  0 mm
19:40 25.9 °F /  -3.4 °C 15.9 °F /  -8.9 °C 1011.7 in /  34256.2 hPa SW 3.2 mph /  5.1 km/h 4.8 mph /  7.7 km/h 54 % 0.0 in /  0 mm
19:45 25.8 °F /  -3.4 °C 15.8 °F /  -9 °C 1011.7 in /  34256.2 hPa WSW 3.7 mph /  6 km/h 3.7 mph /  6 km/h 54 % 0.0 in /  0 mm
19:50 25.8 °F /  -3.4 °C 15.8 °F /  -9 °C 1011.7 in /  34256.2 hPa Calm     54 % 0.0 in /  0 mm
19:55 25.7 °F /  -3.5 °C 15.7 °F /  -9.1 °C 1012.8 in /  34293.4 hPa Calm     54 % 0.0 in /  0 mm
20:00 25.7 °F /  -3.5 °C 15.7 °F /  -9.1 °C 1012.8 in /  34293.4 hPa Calm     54 % 0.0 in /  0 mm
20:05 25.6 °F /  -3.6 °C 15.6 °F /  -9.1 °C 1012.8 in /  34293.4 hPa NNE 2.3 mph /  3.7 km/h   54 % 0.0 in /  0 mm
20:10 25.6 °F /  -3.6 °C 15.3 °F /  -9.3 °C 1011.7 in /  34256.2 hPa South 2.6 mph /  4.2 km/h   53 % 0.0 in /  0 mm
20:15 25.6 °F /  -3.6 °C 15.3 °F /  -9.3 °C 1011.7 in /  34256.2 hPa South 1.9 mph /  3.1 km/h 2.3 mph /  3.7 km/h 53 % 0.0 in /  0 mm
20:20 25.5 °F /  -3.6 °C 15.5 °F /  -9.2 °C 1011.7 in /  34256.2 hPa Calm     54 % 0.0 in /  0 mm
20:25 25.4 °F /  -3.7 °C 15.4 °F /  -9.2 °C 1012.8 in /  34293.4 hPa SW 3.7 mph /  6 km/h 3.7 mph /  6 km/h 54 % 0.0 in /  0 mm
20:30 25.3 °F /  -3.7 °C 15.3 °F /  -9.3 °C 1012.8 in /  34293.4 hPa SW 2.3 mph /  3.7 km/h 2.3 mph /  3.7 km/h 54 % 0.0 in /  0 mm
20:35 25.1 °F /  -3.8 °C 15.1 °F /  -9.4 °C 1012.8 in /  34293.4 hPa WSW 3.7 mph /  6 km/h 3.7 mph /  6 km/h 54 % 0.0 in /  0 mm
20:40 25.0 °F /  -3.9 °C 15.1 °F /  -9.4 °C 1012.8 in /  34293.4 hPa WSW 3.2 mph /  5.1 km/h 3.2 mph /  5.1 km/h 54 % 0.0 in /  0 mm
20:45 23.0 °F /  -5 °C 12.9 °F /  -10.6 °C 1013.8 in /  34327.3 hPa WSW 3.2 mph /  5.1 km/h 4.8 mph /  7.7 km/h 53 % 0.0 in /  0 mm
20:50 24.9 °F /  -3.9 °C 15.2 °F /  -9.3 °C 1012.8 in /  34293.4 hPa WSW 3.7 mph /  6 km/h 3.7 mph /  6 km/h 55 % 0.0 in /  0 mm
20:55 24.9 °F /  -3.9 °C 15.2 °F /  -9.3 °C 1013.8 in /  34327.3 hPa SW 3.7 mph /  6 km/h 3.7 mph /  6 km/h 55 % 0.0 in /  0 mm
21:00 24.8 °F /  -4 °C 15.2 °F /  -9.3 °C 1013.8 in /  34327.3 hPa SW 3.9 mph /  6.3 km/h 3.9 mph /  6.3 km/h 55 % 0.0 in /  0 mm
21:05 22.6 °F /  -5.2 °C 12.8 °F /  -10.7 °C 1012.8 in /  34293.4 hPa WSW 1.6 mph /  2.6 km/h 3.2 mph /  5.1 km/h 54 % 0.0 in /  0 mm
21:10 24.6 °F /  -4.1 °C 15.2 °F /  -9.3 °C 1013.8 in /  34327.3 hPa WSW 4.2 mph /  6.8 km/h 4.2 mph /  6.8 km/h 56 % 0.0 in /  0 mm
21:15 24.6 °F /  -4.1 °C 15.2 °F /  -9.3 °C 1013.8 in /  34327.3 hPa SW 3.9 mph /  6.3 km/h 3.9 mph /  6.3 km/h 56 % 0.0 in /  0 mm
21:20 24.6 °F /  -4.1 °C 15.2 °F /  -9.3 °C 1013.8 in /  34327.3 hPa SW 3.9 mph /  6.3 km/h 3.9 mph /  6.3 km/h 56 % 0.0 in /  0 mm
21:25 24.5 °F /  -4.2 °C 15.2 °F /  -9.3 °C 1013.8 in /  34327.3 hPa SW 5.6 mph /  9 km/h 5.6 mph /  9 km/h 56 % 0.0 in /  0 mm
21:30 24.5 °F /  -4.2 °C 15.2 °F /  -9.3 °C 1013.8 in /  34327.3 hPa West 3.7 mph /  6 km/h 3.7 mph /  6 km/h 56 % 0.0 in /  0 mm
21:35 24.5 °F /  -4.2 °C 15.2 °F /  -9.3 °C 1013.8 in /  34327.3 hPa WSW 3.7 mph /  6 km/h 3.7 mph /  6 km/h 56 % 0.0 in /  0 mm
21:40 24.5 °F /  -4.2 °C 14.9 °F /  -9.5 °C 1013.8 in /  34327.3 hPa WSW 4.2 mph /  6.8 km/h 4.2 mph /  6.8 km/h 55 % 0.0 in /  0 mm
21:45 24.5 °F /  -4.2 °C 14.9 °F /  -9.5 °C 1013.8 in /  34327.3 hPa Calm     55 % 0.0 in /  0 mm
21:55 24.6 °F /  -4.1 °C 14.7 °F /  -9.6 °C 1012.8 in /  34293.4 hPa SW 3.7 mph /  6 km/h 3.7 mph /  6 km/h 54 % 0.0 in /  0 mm
22:00 24.6 °F /  -4.1 °C 14.7 °F /  -9.6 °C 1012.8 in /  34293.4 hPa WSW 4.2 mph /  6.8 km/h 4.2 mph /  6.8 km/h 54 % 0.0 in /  0 mm
22:05 24.7 °F /  -4.1 °C 14.5 °F /  -9.7 °C 1012.8 in /  34293.4 hPa West 5.6 mph /  9 km/h 5.6 mph /  9 km/h 53 % 0.0 in /  0 mm
22:10 24.8 °F /  -4 °C 14.6 °F /  -9.7 °C 1013.8 in /  34327.3 hPa West 4.7 mph /  7.6 km/h 4.7 mph /  7.6 km/h 53 % 0.0 in /  0 mm
22:15 24.7 °F /  -4.1 °C 14.2 °F /  -9.9 °C 1013.8 in /  34327.3 hPa SW 5.0 mph /  8 km/h 5.0 mph /  8 km/h 52 % 0.0 in /  0 mm
22:20 24.6 °F /  -4.1 °C 14.1 °F /  -9.9 °C 1013.8 in /  34327.3 hPa SW 5.6 mph /  9 km/h 5.6 mph /  9 km/h 52 % 0.0 in /  0 mm
22:25 24.5 °F /  -4.2 °C 14.0 °F /  -10 °C 1013.8 in /  34327.3 hPa South 4.2 mph /  6.8 km/h 4.2 mph /  6.8 km/h 52 % 0.0 in /  0 mm
22:30 24.3 °F /  -4.3 °C 14.1 °F /  -9.9 °C 1013.8 in /  34327.3 hPa West 7.4 mph /  11.9 km/h 7.4 mph /  11.9 km/h 53 % 0.0 in /  0 mm
22:35 24.2 °F /  -4.3 °C 14.0 °F /  -10 °C 1013.8 in /  34327.3 hPa WSW 5.6 mph /  9 km/h 5.6 mph /  9 km/h 53 % 0.0 in /  0 mm
22:40 24.3 °F /  -4.3 °C 14.1 °F /  -9.9 °C 1013.8 in /  34327.3 hPa SW 3.9 mph /  6.3 km/h 3.9 mph /  6.3 km/h 53 % 0.0 in /  0 mm
22:45 24.2 °F /  -4.3 °C 14.0 °F /  -10 °C 1013.8 in /  34327.3 hPa SW 3.7 mph /  6 km/h 3.7 mph /  6 km/h 53 % 0.0 in /  0 mm
22:50 24.1 °F /  -4.4 °C 13.9 °F /  -10.1 °C 1013.8 in /  34327.3 hPa SW 3.9 mph /  6.3 km/h 3.9 mph /  6.3 km/h 53 % 0.0 in /  0 mm
22:55 24.0 °F /  -4.4 °C 13.8 °F /  -10.1 °C 1013.8 in /  34327.3 hPa SW 3.7 mph /  6 km/h 3.7 mph /  6 km/h 53 % 0.0 in /  0 mm
23:00 23.9 °F /  -4.5 °C 13.7 °F /  -10.2 °C 1013.8 in /  34327.3 hPa WSW 2.3 mph /  3.7 km/h 2.3 mph /  3.7 km/h 53 % 0.0 in /  0 mm
23:01 23.9 °F /  -4.5 °C 13.7 °F /  -10.2 °C 1013.8 in /  34327.3 hPa SW 3.7 mph /  6 km/h 3.7 mph /  6 km/h 53 % 0.0 in /  0 mm
23:05 21.9 °F /  -5.6 °C 12.2 °F /  -11 °C 1013.8 in /  34327.3 hPa SW 4.8 mph /  7.7 km/h 6.4 mph /  10.3 km/h 54 % 0.0 in /  0 mm
23:06 24.1 °F /  -4.4 °C 13.9 °F /  -10.1 °C 1013.8 in /  34327.3 hPa SW 5.6 mph /  9 km/h 5.6 mph /  9 km/h 53 % 0.0 in /  0 mm
23:11 23.8 °F /  -4.6 °C 13.7 °F /  -10.2 °C 1013.8 in /  34327.3 hPa SW 3.7 mph /  6 km/h 3.7 mph /  6 km/h 53 % 0.0 in /  0 mm
23:15 22.2 °F /  -5.4 °C 12.2 °F /  -11 °C 1014.8 in /  34361.1 hPa SW 4.8 mph /  7.7 km/h 8.0 mph /  12.9 km/h 53 % 0.0 in /  0 mm
23:16 23.6 °F /  -4.7 °C 13.4 °F /  -10.3 °C 1013.8 in /  34327.3 hPa WSW 3.9 mph /  6.3 km/h 3.9 mph /  6.3 km/h 53 % 0.0 in /  0 mm
23:21 23.5 °F /  -4.7 °C 13.4 °F /  -10.3 °C 1013.8 in /  34327.3 hPa WSW 1.9 mph /  3.1 km/h 1.9 mph /  3.1 km/h 53 % 0.0 in /  0 mm
23:25 23.0 °F /  -5 °C 12.3 °F /  -10.9 °C 1014.8 in /  34361.1 hPa SW 9.7 mph /  15.6 km/h 16.1 mph /  25.9 km/h 51 % 0.0 in /  0 mm
23:26 23.5 °F /  -4.7 °C 13.4 °F /  -10.3 °C 1013.8 in /  34327.3 hPa WSW 1.9 mph /  3.1 km/h   53 % 0.0 in /  0 mm
23:31 23.5 °F /  -4.7 °C 13.1 °F /  -10.5 °C 1013.8 in /  34327.3 hPa Calm     52 % 0.0 in /  0 mm
23:35 22.7 °F /  -5.2 °C 12.6 °F /  -10.8 °C 1015.8 in /  34395 hPa SW 12.9 mph /  20.8 km/h 27.4 mph /  44.1 km/h 53 % 0.0 in /  0 mm
23:36 23.6 °F /  -4.7 °C 13.2 °F /  -10.4 °C 1013.8 in /  34327.3 hPa WSW 3.7 mph /  6 km/h 3.7 mph /  6 km/h 52 % 0.0 in /  0 mm
23:41 23.5 °F /  -4.7 °C 13.4 °F /  -10.3 °C 1014.8 in /  34361.1 hPa SW 5.6 mph /  9 km/h 5.6 mph /  9 km/h 53 % 0.0 in /  0 mm
23:45 22.1 °F /  -5.5 °C 12.9 °F /  -10.6 °C 1015.8 in /  34395 hPa SW 11.3 mph /  18.2 km/h 16.1 mph /  25.9 km/h 56 % 0.0 in /  0 mm
23:46 23.5 °F /  -4.7 °C 13.4 °F /  -10.3 °C 1014.8 in /  34361.1 hPa SW 3.9 mph /  6.3 km/h 3.9 mph /  6.3 km/h 53 % 0.0 in /  0 mm
23:51 23.4 °F /  -4.8 °C 13.3 °F /  -10.4 °C 1014.8 in /  34361.1 hPa SW 3.7 mph /  6 km/h 3.7 mph /  6 km/h 53 % 0.0 in /  0 mm
23:55 21.1 °F /  -6.1 °C 13.8 °F /  -10.1 °C 1015.8 in /  34395 hPa WSW 4.8 mph /  7.7 km/h 12.9 mph /  20.8 km/h 63 % 0.0 in /  0 mm
23:56 23.3 °F /  -4.8 °C 13.2 °F /  -10.4 °C 1013.8 in /  34327.3 hPa WSW 3.7 mph /  6 km/h 3.7 mph /  6 km/h 53 % 0.0 in /  0 mm
Meteo Sesrovires
Elogis d' Weather Underground - 3.75 mb

Guio original per  Jim McMurry - jmcmurry@mwt.net Adaptat per a la plantilla per  Wim van der Kuil - Leuven-Template.eu

Trobareu la nostra informacio del temps tambe a:

Weather Underground

AWEKAS